Time;durP1;ratioP1;P1;durP2;ratioP2;P2;SDS_P1;SDS_P2;PMS_P1;PMS_P2;Temp;Humidity;BMP_temperature;BMP_pressure;BME280_temperature;BME280_humidity;BME280_pressure;Samples;Min_cycle;Max_cycle;Signal;HPM_P1;HPM_P2
2023/04/09 00:00:34;;;;;;;15.00;13.70;;;;;;;;;;5065930;28;20382;-80
2023/04/09 00:03:00;;;;;;;14.15;13.15;;;;;;;;;;5061567;28;20377;-80
2023/04/09 00:05:26;;;;;;;14.65;13.50;;;;;;;;;;5055859;28;20456;-80
2023/04/09 00:07:52;;;;;;;14.30;13.13;;;;;;;;;;5057028;28;20436;-79
2023/04/09 00:10:18;;;;;;;14.30;13.18;;;;;;;;;;5062249;28;20420;-80
2023/04/09 00:12:44;;;;;;;14.40;13.30;;;;;;;;;;5081193;28;21783;-80
2023/04/09 00:15:11;;;;;;;14.00;12.98;;;;;;;;;;5057857;28;20391;-77
2023/04/09 00:17:37;;;;;;;13.98;12.88;;;;;;;;;;5069335;28;20411;-79
2023/04/09 00:20:03;;;;;;;13.88;12.85;;;;;;;;;;5066209;28;20380;-79
2023/04/09 00:22:30;;;;;;;14.32;13.23;;;;;;;;;;5066032;28;20407;-79
2023/04/09 00:24:56;;;;;;;14.80;13.70;;;;;;;;;;5068010;28;20384;-79
2023/04/09 00:27:22;;;;;;;13.85;12.85;;;;;;;;;;5065854;28;20375;-79
2023/04/09 00:29:48;;;;;;;14.45;13.35;;;;;;;;;;5066498;28;20395;-79
2023/04/09 00:32:14;;;;;;;14.35;13.25;;;;;;;;;;5066151;28;20389;-79
2023/04/09 00:34:40;;;;;;;13.80;12.80;;;;;;;;;;5065503;28;20848;-79
2023/04/09 00:37:06;;;;;;;14.13;13.10;;;;;;;;;;5060656;28;20413;-79
2023/04/09 00:39:32;;;;;;;14.00;13.00;;;;;;;;;;5066234;28;20376;-79
2023/04/09 00:42:01;;;;;;;14.50;13.40;;;;;;;;;;5065459;28;20392;-79
2023/04/09 00:44:27;;;;;;;13.93;12.93;;;;;;;;;;5069536;28;20463;-78
2023/04/09 00:46:54;;;;;;;14.30;13.30;;;;;;;;;;5055914;28;20937;-79
2023/04/09 00:49:20;;;;;;;15.00;13.83;;;;;;;;;;5068253;28;20938;-79
2023/04/09 00:51:47;;;;;;;14.75;13.65;;;;;;;;;;5053414;28;20385;-79
2023/04/09 00:54:13;;;;;;;15.43;14.30;;;;;;;;;;5081115;28;20391;-79
2023/04/09 00:56:40;;;;;;;15.45;14.25;;;;;;;;;;5058567;28;20414;-79
2023/04/09 00:59:06;;;;;;;16.02;14.73;;;;;;;;;;5068217;28;20371;-79
2023/04/09 01:01:32;;;;;;;17.10;15.60;;;;;;;;;;5068108;28;20375;-79
2023/04/09 01:03:58;;;;;;;15.65;14.45;;;;;;;;;;5065138;28;20384;-79
2023/04/09 01:06:50;;;;;;;16.10;14.80;;;;;;;;;;5063636;28;20384;-79
2023/04/09 01:09:37;;;;;;;15.70;14.50;;;;;;;;;;5056329;28;20732;-78
2023/04/09 01:12:17;;;;;;;15.93;14.73;;;;;;;;;;5056473;28;20392;-79
2023/04/09 01:14:50;;;;;;;16.80;15.50;;;;;;;;;;5057896;28;20382;-79
2023/04/09 01:17:18;;;;;;;15.55;14.32;;;;;;;;;;5054134;28;20401;-79
2023/04/09 01:19:44;;;;;;;16.02;14.73;;;;;;;;;;5057653;28;20377;-79
2023/04/09 01:22:22;;;;;;;15.60;14.40;;;;;;;;;;5058901;28;20394;-79
2023/04/09 01:25:00;;;;;;;15.93;14.73;;;;;;;;;;5081250;28;20950;-79
2023/04/09 01:27:30;;;;;;;16.02;14.82;;;;;;;;;;5091208;28;20380;-78
2023/04/09 01:29:56;;;;;;;15.73;14.47;;;;;;;;;;5091328;28;20418;-79
2023/04/09 01:32:24;;;;;;;16.00;14.80;;;;;;;;;;5092161;28;20396;-79
2023/04/09 01:34:50;;;;;;;16.20;15.00;;;;;;;;;;5086825;28;20387;-79
2023/04/09 01:37:17;;;;;;;16.27;14.88;;;;;;;;;;5089398;28;20921;-79
2023/04/09 01:39:44;;;;;;;16.75;15.45;;;;;;;;;;5095268;28;20387;-79
2023/04/09 01:42:11;;;;;;;16.10;14.80;;;;;;;;;;5095118;28;20385;-78
2023/04/09 01:44:40;;;;;;;15.88;14.68;;;;;;;;;;5088716;28;20375;-79
2023/04/09 01:47:08;;;;;;;15.07;13.98;;;;;;;;;;5088028;28;20370;-79
2023/04/09 01:49:35;;;;;;;16.25;14.90;;;;;;;;;;5087202;28;20383;-79
2023/04/09 01:52:01;;;;;;;15.68;14.38;;;;;;;;;;5086349;28;20869;-79
2023/04/09 01:54:27;;;;;;;16.40;15.02;;;;;;;;;;5094899;28;20469;-78
2023/04/09 01:56:53;;;;;;;16.58;15.27;;;;;;;;;;5094786;28;20512;-79
2023/04/09 01:59:19;;;;;;;15.80;14.60;;;;;;;;;;5093591;28;20469;-78
2023/04/09 02:01:46;;;;;;;14.90;13.80;;;;;;;;;;5086161;28;20853;-79
2023/04/09 02:04:33;;;;;;;15.93;14.63;;;;;;;;;;5086389;28;20377;-79
2023/04/09 02:07:05;;;;;;;16.13;14.93;;;;;;;;;;5066741;28;20495;-79
2023/04/09 02:09:31;;;;;;;15.70;14.50;;;;;;;;;;5069667;28;20492;-78
2023/04/09 02:11:58;;;;;;;16.15;14.85;;;;;;;;;;5072645;28;20939;-78
2023/04/09 02:14:25;;;;;;;16.10;14.80;;;;;;;;;;5088244;28;20435;-78
2023/04/09 02:16:51;;;;;;;15.95;14.75;;;;;;;;;;5094268;28;20408;-78
2023/04/09 02:19:17;;;;;;;15.80;14.50;;;;;;;;;;5082746;28;20849;-78
2023/04/09 02:21:43;;;;;;;16.75;15.35;;;;;;;;;;5091058;28;20739;-78
2023/04/09 02:24:09;;;;;;;16.63;15.32;;;;;;;;;;5079131;28;20389;-78
2023/04/09 02:26:35;;;;;;;16.47;15.13;;;;;;;;;;5094684;28;20840;-78
2023/04/09 02:29:01;;;;;;;15.73;14.52;;;;;;;;;;5094644;28;20386;-79
2023/04/09 02:31:27;;;;;;;16.15;14.82;;;;;;;;;;5094681;28;20386;-79
2023/04/09 02:33:53;;;;;;;16.33;15.03;;;;;;;;;;5088030;28;20387;-78
2023/04/09 02:36:19;;;;;;;16.40;15.02;;;;;;;;;;5081104;28;20386;-78
2023/04/09 02:38:45;;;;;;;15.63;14.43;;;;;;;;;;5094248;28;20780;-78
2023/04/09 02:41:11;;;;;;;16.20;15.00;;;;;;;;;;5094002;28;20378;-78
2023/04/09 02:43:37;;;;;;;17.17;15.77;;;;;;;;;;5092799;28;20386;-78
2023/04/09 02:46:03;;;;;;;16.60;15.20;;;;;;;;;;5089380;28;20464;-78
2023/04/09 02:48:29;;;;;;;16.30;15.00;;;;;;;;;;5084555;28;20390;-78
2023/04/09 02:50:56;;;;;;;16.55;15.15;;;;;;;;;;5093846;28;20427;-78
2023/04/09 02:53:22;;;;;;;16.40;15.05;;;;;;;;;;5094033;28;20382;-78
2023/04/09 02:55:48;;;;;;;16.73;15.43;;;;;;;;;;5079372;28;20410;-79
2023/04/09 02:58:14;;;;;;;17.00;15.65;;;;;;;;;;5093750;28;20418;-78
2023/04/09 03:00:40;;;;;;;16.55;15.15;;;;;;;;;;5093655;28;20370;-78
2023/04/09 03:03:06;;;;;;;15.45;14.25;;;;;;;;;;5093596;28;20402;-79
2023/04/09 03:05:32;;;;;;;16.70;15.30;;;;;;;;;;5093701;28;20871;-78
2023/04/09 03:07:58;;;;;;;15.20;14.00;;;;;;;;;;5093485;28;20382;-78
2023/04/09 03:10:24;;;;;;;16.63;15.32;;;;;;;;;;5084778;28;20882;-78
2023/04/09 03:12:50;;;;;;;16.58;15.27;;;;;;;;;;5079274;28;20376;-78
2023/04/09 03:15:16;;;;;;;16.42;15.13;;;;;;;;;;5093406;28;20374;-78
2023/04/09 03:17:42;;;;;;;15.85;14.55;;;;;;;;;;5093440;28;20967;-78
2023/04/09 03:20:08;;;;;;;15.70;14.50;;;;;;;;;;5093212;28;20370;-78
2023/04/09 03:22:38;;;;;;;16.40;15.10;;;;;;;;;;5085071;28;20402;-78
2023/04/09 03:25:04;;;;;;;15.90;14.65;;;;;;;;;;5086741;28;20405;-78
2023/04/09 03:27:32;;;;;;;16.75;15.45;;;;;;;;;;5093401;28;20851;-79
2023/04/09 03:29:58;;;;;;;16.40;15.10;;;;;;;;;;5093248;28;20377;-78
2023/04/09 03:32:24;;;;;;;16.08;14.77;;;;;;;;;;5093089;28;20394;-78
2023/04/09 03:34:50;;;;;;;16.70;15.32;;;;;;;;;;5093080;28;20374;-78
2023/04/09 03:37:16;;;;;;;16.85;15.55;;;;;;;;;;5090280;28;21032;-78
2023/04/09 03:39:42;;;;;;;17.77;16.30;;;;;;;;;;5077123;28;20463;-79
2023/04/09 03:42:08;;;;;;;17.35;15.85;;;;;;;;;;5072553;28;20455;-80
2023/04/09 03:44:34;;;;;;;16.90;15.40;;;;;;;;;;5056865;28;20471;-79
2023/04/09 03:47:00;;;;;;;16.20;14.90;;;;;;;;;;5062833;28;20382;-80
2023/04/09 03:49:26;;;;;;;16.70;15.30;;;;;;;;;;5060589;28;20874;-79
2023/04/09 03:51:55;;;;;;;16.67;15.38;;;;;;;;;;5071890;28;20425;-80
2023/04/09 03:54:21;;;;;;;16.35;15.05;;;;;;;;;;5067816;28;20380;-79
2023/04/09 03:56:47;;;;;;;18.08;16.50;;;;;;;;;;5071582;28;20927;-78
2023/04/09 03:59:13;;;;;;;17.70;16.20;;;;;;;;;;5062953;28;20385;-78
2023/04/09 04:01:39;;;;;;;17.42;16.00;;;;;;;;;;5072061;28;20382;-79
2023/04/09 04:04:05;;;;;;;17.73;16.23;;;;;;;;;;5071899;28;20386;-79
2023/04/09 04:06:33;;;;;;;17.23;15.80;;;;;;;;;;5072033;28;20827;-79
2023/04/09 04:08:59;;;;;;;17.15;15.65;;;;;;;;;;5070834;28;20762;-79
2023/04/09 04:11:25;;;;;;;16.23;14.87;;;;;;;;;;5071226;28;20413;-79
2023/04/09 04:13:51;;;;;;;16.88;15.48;;;;;;;;;;5070158;28;20384;-78
2023/04/09 04:16:17;;;;;;;15.93;14.52;;;;;;;;;;5070816;28;20380;-78
2023/04/09 04:18:43;;;;;;;15.37;14.17;;;;;;;;;;5071057;28;20879;-79
2023/04/09 04:21:15;;;;;;;15.93;14.63;;;;;;;;;;5071494;28;20380;-78
2023/04/09 04:23:41;;;;;;;16.13;14.82;;;;;;;;;;5073966;28;20379;-80
2023/04/09 04:26:10;;;;;;;15.65;14.45;;;;;;;;;;5092025;28;20374;-80
2023/04/09 04:28:37;;;;;;;16.10;14.70;;;;;;;;;;5074275;28;20380;-79
2023/04/09 04:31:06;;;;;;;14.95;13.75;;;;;;;;;;5092038;28;20866;-79
2023/04/09 04:33:32;;;;;;;16.40;15.00;;;;;;;;;;5091943;28;20835;-79
2023/04/09 04:36:11;;;;;;;15.20;14.00;;;;;;;;;;5084769;28;20379;-80
2023/04/09 04:38:38;;;;;;;17.30;15.70;;;;;;;;;;5084801;28;20389;-78
2023/04/09 04:41:04;;;;;;;16.42;15.07;;;;;;;;;;5091371;28;20377;-79
2023/04/09 04:43:31;;;;;;;15.85;14.55;;;;;;;;;;5076915;28;20733;-79
2023/04/09 04:45:57;;;;;;;17.10;15.70;;;;;;;;;;5071224;28;20372;-79
2023/04/09 04:48:23;;;;;;;17.15;15.73;;;;;;;;;;5071421;28;20376;-79
2023/04/09 04:51:00;;;;;;;17.83;16.33;;;;;;;;;;5065353;28;20393;-79
2023/04/09 04:53:26;;;;;;;16.15;14.85;;;;;;;;;;5070924;28;20439;-79
2023/04/09 04:55:52;;;;;;;17.80;16.30;;;;;;;;;;5070980;28;20411;-79
2023/04/09 04:58:18;;;;;;;17.92;16.35;;;;;;;;;;5071322;28;20498;-79
2023/04/09 05:00:44;;;;;;;17.95;16.38;;;;;;;;;;5071254;28;20380;-79
2023/04/09 05:03:11;;;;;;;16.75;15.35;;;;;;;;;;5059066;28;20446;-79
2023/04/09 05:05:37;;;;;;;16.88;15.48;;;;;;;;;;5062426;28;20375;-79
2023/04/09 05:08:03;;;;;;;17.27;15.77;;;;;;;;;;5070228;28;20520;-79
2023/04/09 05:10:29;;;;;;;17.27;15.77;;;;;;;;;;5068034;28;20404;-79
2023/04/09 05:12:55;;;;;;;17.97;16.37;;;;;;;;;;5060552;28;20389;-79
2023/04/09 05:15:21;;;;;;;17.30;15.85;;;;;;;;;;5059841;28;20438;-79
2023/04/09 05:17:47;;;;;;;17.35;15.88;;;;;;;;;;5060776;28;20898;-79
2023/04/09 05:20:13;;;;;;;18.60;17.00;;;;;;;;;;5070225;28;20380;-79
2023/04/09 05:22:39;;;;;;;18.77;17.02;;;;;;;;;;5071016;28;20390;-79
2023/04/09 05:25:06;;;;;;;18.90;17.30;;;;;;;;;;5070705;28;20545;-80
2023/04/09 05:27:32;;;;;;;20.48;18.65;;;;;;;;;;5070991;28;20380;-78
2023/04/09 05:29:58;;;;;;;20.13;18.38;;;;;;;;;;5069568;28;20391;-79
2023/04/09 05:32:24;;;;;;;22.15;20.15;;;;;;;;;;5069536;28;20962;-79
2023/04/09 05:34:50;;;;;;;20.83;19.02;;;;;;;;;;5070829;28;20392;-78
2023/04/09 05:37:16;;;;;;;21.20;19.25;;;;;;;;;;5070488;28;20415;-77
2023/04/09 05:39:42;;;;;;;21.85;19.85;;;;;;;;;;5071042;28;20372;-78
2023/04/09 05:42:08;;;;;;;23.70;21.48;;;;;;;;;;5070944;28;20853;-78
2023/04/09 05:44:34;;;;;;;25.80;23.33;;;;;;;;;;5070845;28;20376;-78
2023/04/09 05:47:00;;;;;;;24.05;21.75;;;;;;;;;;5071251;28;20371;-77
2023/04/09 05:49:26;;;;;;;24.40;22.10;;;;;;;;;;5070688;28;20401;-79
2023/04/09 05:51:52;;;;;;;25.80;23.20;;;;;;;;;;5070980;28;20371;-79
2023/04/09 05:54:18;;;;;;;25.77;23.27;;;;;;;;;;5060325;28;20832;-79
2023/04/09 05:56:44;;;;;;;24.75;22.42;;;;;;;;;;5070735;28;20419;-79
2023/04/09 05:59:10;;;;;;;26.92;24.23;;;;;;;;;;5071008;28;20506;-79
2023/04/09 06:01:36;;;;;;;26.05;23.45;;;;;;;;;;5064647;28;20395;-78
2023/04/09 06:04:02;;;;;;;26.13;23.60;;;;;;;;;;5064173;28;20379;-78
2023/04/09 06:06:28;;;;;;;27.00;24.30;;;;;;;;;;5070673;28;20459;-79
2023/04/09 06:08:54;;;;;;;26.08;23.58;;;;;;;;;;5069709;28;20415;-78
2023/04/09 06:11:21;;;;;;;24.13;21.92;;;;;;;;;;5070754;28;20411;-78
2023/04/09 06:13:47;;;;;;;25.83;23.30;;;;;;;;;;5070554;28;20383;-79
2023/04/09 06:16:13;;;;;;;25.83;23.42;;;;;;;;;;5065356;28;20457;-79
2023/04/09 06:18:41;;;;;;;25.67;23.17;;;;;;;;;;5071932;28;20429;-79
2023/04/09 06:21:07;;;;;;;26.25;23.65;;;;;;;;;;5074013;28;20396;-79
2023/04/09 06:23:34;;;;;;;25.55;22.98;;;;;;;;;;5074927;28;20391;-79
2023/04/09 06:26:00;;;;;;;25.45;22.95;;;;;;;;;;5094561;28;20839;-79
2023/04/09 06:28:28;;;;;;;25.15;22.75;;;;;;;;;;5093265;28;20440;-81
2023/04/09 06:30:54;;;;;;;25.50;23.10;;;;;;;;;;5094156;28;20421;-79
2023/04/09 06:33:20;;;;;;;25.13;22.63;;;;;;;;;;5082416;28;20388;-79
2023/04/09 06:35:46;;;;;;;24.20;21.90;;;;;;;;;;5091676;28;20382;-79
2023/04/09 06:38:12;;;;;;;23.92;21.75;;;;;;;;;;5081519;28;20496;-79
2023/04/09 06:40:38;;;;;;;23.42;21.23;;;;;;;;;;5069199;28;20486;-79
2023/04/09 06:43:05;;;;;;;23.25;21.05;;;;;;;;;;5068323;28;20381;-80
2023/04/09 06:45:31;;;;;;;23.75;21.50;;;;;;;;;;5058499;28;20455;-79
2023/04/09 06:47:57;;;;;;;22.60;20.52;;;;;;;;;;5059336;28;20411;-79
2023/04/09 06:50:24;;;;;;;21.67;19.73;;;;;;;;;;5065817;28;20399;-79
2023/04/09 06:52:50;;;;;;;21.58;19.67;;;;;;;;;;5073541;28;20379;-80
2023/04/09 06:55:16;;;;;;;21.75;19.83;;;;;;;;;;5071984;28;20416;-78
2023/04/09 06:57:42;;;;;;;22.25;20.25;;;;;;;;;;5073171;28;20407;-79
2023/04/09 07:00:09;;;;;;;21.80;19.80;;;;;;;;;;5072193;28;20908;-79
2023/04/09 07:02:35;;;;;;;22.15;20.05;;;;;;;;;;5073570;28;20407;-79
2023/04/09 07:05:02;;;;;;;21.30;19.40;;;;;;;;;;5073430;28;20383;-79
2023/04/09 07:07:28;;;;;;;20.10;18.40;;;;;;;;;;5073445;28;20453;-79
2023/04/09 07:09:54;;;;;;;20.88;18.95;;;;;;;;;;5072328;28;20446;-79
2023/04/09 07:12:30;;;;;;;20.98;19.08;;;;;;;;;;5073308;28;20480;-78
2023/04/09 07:14:57;;;;;;;20.55;18.75;;;;;;;;;;5073100;28;20474;-79
2023/04/09 07:17:23;;;;;;;20.05;18.25;;;;;;;;;;5073110;28;20443;-79
2023/04/09 07:19:50;;;;;;;21.02;19.13;;;;;;;;;;5073170;28;20430;-79
2023/04/09 07:22:16;;;;;;;19.58;17.83;;;;;;;;;;5073150;28;20744;-79
2023/04/09 07:24:42;;;;;;;20.80;18.90;;;;;;;;;;5083656;28;20874;-79
2023/04/09 07:27:09;;;;;;;19.88;18.15;;;;;;;;;;5093219;28;20378;-79
2023/04/09 07:29:36;;;;;;;21.20;19.30;;;;;;;;;;5091414;28;20378;-79
2023/04/09 07:32:02;;;;;;;21.42;19.63;;;;;;;;;;5081591;28;20400;-79
2023/04/09 07:34:28;;;;;;;20.27;18.48;;;;;;;;;;5072763;28;20937;-79
2023/04/09 07:36:54;;;;;;;19.90;18.13;;;;;;;;;;5072791;28;20411;-79
2023/04/09 07:39:21;;;;;;;21.13;19.23;;;;;;;;;;5072794;28;20441;-80
2023/04/09 07:41:47;;;;;;;20.20;18.40;;;;;;;;;;5072840;28;20375;-80
2023/04/09 07:44:13;;;;;;;19.73;17.95;;;;;;;;;;5072294;28;20567;-80
2023/04/09 07:46:40;;;;;;;19.92;18.20;;;;;;;;;;5072152;28;20395;-79
2023/04/09 07:49:06;;;;;;;19.67;17.90;;;;;;;;;;5072180;28;20407;-78
2023/04/09 07:51:32;;;;;;;20.15;18.35;;;;;;;;;;5072423;28;20410;-79
2023/04/09 07:53:58;;;;;;;19.10;17.42;;;;;;;;;;5061590;28;20389;-79
2023/04/09 07:56:24;;;;;;;20.35;18.55;;;;;;;;;;5067821;28;20441;-79
2023/04/09 07:58:50;;;;;;;19.98;18.15;;;;;;;;;;5053635;28;20487;-79
2023/04/09 08:01:16;;;;;;;19.70;18.00;;;;;;;;;;5069861;28;20380;-79
2023/04/09 08:03:42;;;;;;;18.30;16.80;;;;;;;;;;5072635;28;20764;-79
2023/04/09 08:06:08;;;;;;;18.95;17.27;;;;;;;;;;5072040;28;20390;-79
2023/04/09 08:08:34;;;;;;;19.42;17.83;;;;;;;;;;5059971;28;20388;-79
2023/04/09 08:11:00;;;;;;;19.33;17.73;;;;;;;;;;5057612;28;20397;-80
2023/04/09 08:13:26;;;;;;;18.70;17.10;;;;;;;;;;5071333;28;20379;-80
2023/04/09 08:15:52;;;;;;;20.20;18.50;;;;;;;;;;5072087;28;20388;-81
2023/04/09 08:18:19;;;;;;;18.90;17.40;;;;;;;;;;5068992;28;20926;-80
2023/04/09 08:20:45;;;;;;;17.87;16.37;;;;;;;;;;5068764;28;20384;-80
2023/04/09 08:23:11;;;;;;;17.92;16.42;;;;;;;;;;5071067;28;20475;-81
2023/04/09 08:25:37;;;;;;;18.20;16.70;;;;;;;;;;5089277;28;20409;-81
2023/04/09 08:28:03;;;;;;;18.02;16.52;;;;;;;;;;5090000;28;20429;-80
2023/04/09 08:30:29;;;;;;;16.90;15.57;;;;;;;;;;5078950;28;20387;-81
2023/04/09 08:32:55;;;;;;;16.90;15.60;;;;;;;;;;5083314;28;20787;-81
2023/04/09 08:35:21;;;;;;;16.57;15.27;;;;;;;;;;5081171;28;20406;-80
2023/04/09 08:37:47;;;;;;;16.95;15.65;;;;;;;;;;5071718;28;20411;-81
2023/04/09 08:40:13;;;;;;;16.95;15.65;;;;;;;;;;5084471;28;20386;-81
2023/04/09 08:42:44;;;;;;;18.03;16.47;;;;;;;;;;5090521;28;20431;-81
2023/04/09 08:45:10;;;;;;;17.08;15.70;;;;;;;;;;5090562;28;20875;-81
2023/04/09 08:47:37;;;;;;;17.50;16.10;;;;;;;;;;5091659;28;20409;-81
2023/04/09 08:50:03;;;;;;;17.67;16.27;;;;;;;;;;5082667;28;20432;-81
2023/04/09 08:52:33;;;;;;;16.67;15.38;;;;;;;;;;5076108;28;20391;-81
2023/04/09 08:54:59;;;;;;;16.70;15.32;;;;;;;;;;5091578;28;20402;-81
2023/04/09 08:57:26;;;;;;;17.20;15.80;;;;;;;;;;5077575;28;20444;-81
2023/04/09 08:59:52;;;;;;;16.80;15.40;;;;;;;;;;5076080;28;20469;-80
2023/04/09 09:02:18;;;;;;;17.13;15.65;;;;;;;;;;5091644;28;20393;-80
2023/04/09 09:04:48;;;;;;;16.95;15.55;;;;;;;;;;5091370;28;20377;-80
2023/04/09 09:07:14;;;;;;;17.80;16.30;;;;;;;;;;5080888;28;20376;-81
2023/04/09 09:09:54;;;;;;;17.33;15.82;;;;;;;;;;5079723;28;20781;-79
2023/04/09 09:12:37;;;;;;;18.42;16.92;;;;;;;;;;5082140;28;20509;-80
2023/04/09 09:15:03;;;;;;;17.40;16.00;;;;;;;;;;5091025;28;20378;-80
2023/04/09 09:17:29;;;;;;;18.13;16.63;;;;;;;;;;5091987;28;20480;-81
2023/04/09 09:19:55;;;;;;;18.15;16.65;;;;;;;;;;5090354;28;20385;-81
2023/04/09 09:22:21;;;;;;;16.92;15.52;;;;;;;;;;5085296;28;20869;-81
2023/04/09 09:24:52;;;;;;;15.35;14.15;;;;;;;;;;5082841;28;20879;-81
2023/04/09 09:27:41;;;;;;;16.30;14.80;;;;;;;;;;5077538;28;20381;-81
2023/04/09 09:30:09;;;;;;;16.90;15.48;;;;;;;;;;5091624;28;20374;-81
2023/04/09 09:32:35;;;;;;;17.30;15.90;;;;;;;;;;5089968;28;20762;-81
2023/04/09 09:35:05;;;;;;;16.25;14.95;;;;;;;;;;5091378;28;20390;-81
2023/04/09 09:37:31;;;;;;;15.95;14.65;;;;;;;;;;5087340;28;20757;-81
2023/04/09 09:39:58;;;;;;;16.60;15.20;;;;;;;;;;5081329;28;20378;-81
2023/04/09 09:42:25;;;;;;;16.40;15.00;;;;;;;;;;5091240;28;20401;-81
2023/04/09 09:44:51;;;;;;;14.85;13.60;;;;;;;;;;5091254;28;20370;-81
2023/04/09 09:47:21;;;;;;;16.23;14.93;;;;;;;;;;5091168;28;20479;-81
2023/04/09 09:49:50;;;;;;;15.93;14.63;;;;;;;;;;5077398;28;20378;-81
2023/04/09 09:52:20;;;;;;;15.88;14.68;;;;;;;;;;5090263;28;20388;-80
2023/04/09 09:54:47;;;;;;;15.00;13.90;;;;;;;;;;5094597;28;20452;-80
2023/04/09 09:57:14;;;;;;;15.38;14.13;;;;;;;;;;5086989;28;20419;-81
2023/04/09 09:59:42;;;;;;;15.93;14.60;;;;;;;;;;5092252;28;20377;-81
2023/04/09 10:02:15;;;;;;;16.17;14.88;;;;;;;;;;5095055;28;20377;-81
2023/04/09 10:04:41;;;;;;;15.63;14.43;;;;;;;;;;5091179;28;20407;-81
2023/04/09 10:07:08;;;;;;;16.15;14.85;;;;;;;;;;5084387;28;20386;-81
2023/04/09 10:09:37;;;;;;;15.90;14.70;;;;;;;;;;5085831;28;20392;-81
2023/04/09 10:12:05;;;;;;;16.20;14.90;;;;;;;;;;5086360;28;20384;-81
2023/04/09 10:14:32;;;;;;;15.90;14.60;;;;;;;;;;5089192;28;20370;-81
2023/04/09 10:16:58;;;;;;;15.05;13.85;;;;;;;;;;5094648;28;20404;-81
2023/04/09 10:19:24;;;;;;;14.77;13.68;;;;;;;;;;5092889;28;20390;-81
2023/04/09 10:22:05;;;;;;;15.87;14.57;;;;;;;;;;5078090;28;20423;-82
2023/04/09 10:24:33;;;;;;;14.98;13.77;;;;;;;;;;5081796;28;20871;-81
2023/04/09 10:27:19;;;;;;;14.65;13.52;;;;;;;;;;5088468;28;20389;-82
2023/04/09 10:29:46;;;;;;;14.95;13.75;;;;;;;;;;5074089;28;20934;-81
2023/04/09 10:32:12;;;;;;;13.95;12.85;;;;;;;;;;5076311;28;20895;-81
2023/04/09 10:34:39;;;;;;;12.57;11.68;;;;;;;;;;5094610;28;20374;-81
2023/04/09 10:37:07;;;;;;;12.05;11.15;;;;;;;;;;5078759;28;20407;-81
2023/04/09 10:39:33;;;;;;;12.75;11.70;;;;;;;;;;5094698;28;20473;-81
2023/04/09 10:42:03;;;;;;;13.02;12.02;;;;;;;;;;5094243;28;20435;-81
2023/04/09 10:44:34;;;;;;;12.55;11.65;;;;;;;;;;5092755;28;20379;-81
2023/04/09 10:47:02;;;;;;;11.48;10.68;;;;;;;;;;5087889;28;20898;-81
2023/04/09 10:49:35;;;;;;;11.05;10.25;;;;;;;;;;5094096;28;20394;-81
2023/04/09 10:52:01;;;;;;;11.25;10.43;;;;;;;;;;5094078;28;20382;-81
2023/04/09 10:54:33;;;;;;;10.80;10.00;;;;;;;;;;5090493;28;20408;-81
2023/04/09 10:57:08;;;;;;;11.90;11.03;;;;;;;;;;5083706;28;20433;-82
2023/04/09 10:59:35;;;;;;;10.95;10.15;;;;;;;;;;5093701;28;20402;-81
2023/04/09 11:02:01;;;;;;;11.00;10.20;;;;;;;;;;5093780;28;20374;-81
2023/04/09 11:04:33;;;;;;;11.47;10.63;;;;;;;;;;5093559;28;20416;-82
2023/04/09 11:07:00;;;;;;;11.02;10.23;;;;;;;;;;5093736;28;20382;-81
2023/04/09 11:09:26;;;;;;;10.95;10.15;;;;;;;;;;5084698;28;20388;-82
2023/04/09 11:11:53;;;;;;;10.82;10.02;;;;;;;;;;5093640;28;20382;-81
2023/04/09 11:14:20;;;;;;;10.48;9.77;;;;;;;;;;5093531;28;20386;-82
2023/04/09 11:16:49;;;;;;;9.88;9.18;;;;;;;;;;5093302;28;20398;-81
2023/04/09 11:19:15;;;;;;;10.98;10.13;;;;;;;;;;5092098;28;20378;-81
2023/04/09 11:21:45;;;;;;;10.52;9.75;;;;;;;;;;5093255;28;20374;-81
2023/04/09 11:24:17;;;;;;;12.02;11.13;;;;;;;;;;5065446;28;20469;-81
2023/04/09 11:26:44;;;;;;;9.97;9.27;;;;;;;;;;5091971;28;20813;-81
2023/04/09 11:29:11;;;;;;;10.07;9.38;;;;;;;;;;5073705;28;20433;-81
2023/04/09 11:31:37;;;;;;;9.80;9.10;;;;;;;;;;5073061;28;20372;-81
2023/04/09 11:34:03;;;;;;;8.95;8.35;;;;;;;;;;5090545;28;20784;-81
2023/04/09 11:36:30;;;;;;;8.88;8.18;;;;;;;;;;5093084;28;20378;-81
2023/04/09 11:38:58;;;;;;;8.13;7.53;;;;;;;;;;5078635;28;20372;-82
2023/04/09 11:41:33;;;;;;;7.63;6.93;;;;;;;;;;5092937;28;20465;-81
2023/04/09 11:44:02;;;;;;;7.28;6.78;;;;;;;;;;5091548;28;20761;-81
2023/04/09 11:46:28;;;;;;;7.45;6.95;;;;;;;;;;5073369;28;20386;-81
2023/04/09 11:48:55;;;;;;;6.97;6.47;;;;;;;;;;5086748;28;20409;-81
2023/04/09 11:51:22;;;;;;;7.45;6.95;;;;;;;;;;5093477;28;20366;-81
2023/04/09 11:53:49;;;;;;;6.90;6.40;;;;;;;;;;5093301;28;20375;-81
2023/04/09 11:56:16;;;;;;;7.15;6.65;;;;;;;;;;5077431;28;20417;-81
2023/04/09 11:58:48;;;;;;;6.25;5.85;;;;;;;;;;5092933;28;20951;-81
2023/04/09 12:01:15;;;;;;;7.82;7.22;;;;;;;;;;5092367;28;20431;-81
2023/04/09 12:03:41;;;;;;;7.03;6.53;;;;;;;;;;5092573;28;20366;-82
2023/04/09 12:06:08;;;;;;;6.90;6.40;;;;;;;;;;5081875;28;20447;-81
2023/04/09 12:08:35;;;;;;;7.63;7.10;;;;;;;;;;5090368;28;20382;-81
2023/04/09 12:11:08;;;;;;;7.40;6.90;;;;;;;;;;5086045;28;20414;-82
2023/04/09 12:13:34;;;;;;;6.95;6.45;;;;;;;;;;5092382;28;20385;-81
2023/04/09 12:16:02;;;;;;;7.38;6.88;;;;;;;;;;5091737;28;20386;-82
2023/04/09 12:18:28;;;;;;;7.20;6.70;;;;;;;;;;5086977;28;20489;-82
2023/04/09 12:20:54;;;;;;;7.35;6.57;;;;;;;;;;5083200;28;20382;-81
2023/04/09 12:23:20;;;;;;;6.83;6.33;;;;;;;;;;5078770;28;20404;-81
2023/04/09 12:25:46;;;;;;;6.38;5.97;;;;;;;;;;5077020;28;20385;-82
2023/04/09 12:28:17;;;;;;;7.20;6.70;;;;;;;;;;5080730;28;20434;-81
2023/04/09 12:30:43;;;;;;;7.22;6.72;;;;;;;;;;5086033;28;20380;-82
2023/04/09 12:33:09;;;;;;;7.30;6.80;;;;;;;;;;5081637;28;20435;-81
2023/04/09 12:35:36;;;;;;;6.72;6.22;;;;;;;;;;5091754;28;20386;-82
2023/04/09 12:38:04;;;;;;;6.88;6.38;;;;;;;;;;5092023;28;20484;-81
2023/04/09 12:40:30;;;;;;;6.40;6.00;;;;;;;;;;5092368;28;20889;-81
2023/04/09 12:42:56;;;;;;;6.30;5.90;;;;;;;;;;5092189;28;20389;-81
2023/04/09 12:45:22;;;;;;;5.80;5.40;;;;;;;;;;5077100;28;20376;-81
2023/04/09 12:47:48;;;;;;;6.07;5.57;;;;;;;;;;5083473;28;20384;-81
2023/04/09 12:50:15;;;;;;;6.35;5.95;;;;;;;;;;5082843;28;20386;-81
2023/04/09 12:52:41;;;;;;;7.07;6.57;;;;;;;;;;5091991;28;20370;-81
2023/04/09 12:55:07;;;;;;;5.90;5.50;;;;;;;;;;5091649;28;20390;-81
2023/04/09 12:57:34;;;;;;;5.80;5.40;;;;;;;;;;5091816;28;20413;-81
2023/04/09 13:00:00;;;;;;;6.28;5.82;;;;;;;;;;5091759;28;20374;-81
2023/04/09 13:02:26;;;;;;;6.68;6.13;;;;;;;;;;5091780;28;20435;-81
2023/04/09 13:04:52;;;;;;;6.40;6.00;;;;;;;;;;5091594;28;20374;-82
2023/04/09 13:07:19;;;;;;;5.90;5.40;;;;;;;;;;5080482;28;20379;-81
2023/04/09 13:09:45;;;;;;;5.18;4.80;;;;;;;;;;5080104;28;20397;-82
2023/04/09 13:12:11;;;;;;;5.40;5.00;;;;;;;;;;5082147;28;20394;-81
2023/04/09 13:14:40;;;;;;;5.30;4.90;;;;;;;;;;5086759;28;20378;-82
2023/04/09 13:17:06;;;;;;;5.50;5.10;;;;;;;;;;5091388;28;20398;-81
2023/04/09 13:19:32;;;;;;;5.22;4.93;;;;;;;;;;5077358;28;20375;-81
2023/04/09 13:21:58;;;;;;;5.53;5.13;;;;;;;;;;5061081;28;20370;-81
2023/04/09 13:24:24;;;;;;;5.00;4.70;;;;;;;;;;5077898;28;20767;-82
2023/04/09 13:26:51;;;;;;;5.05;4.70;;;;;;;;;;5091316;28;20382;-81
2023/04/09 13:29:17;;;;;;;5.03;4.72;;;;;;;;;;5065966;28;20384;-81
2023/04/09 13:31:43;;;;;;;4.60;4.30;;;;;;;;;;5095620;28;20386;-81
2023/04/09 13:34:09;;;;;;;4.63;4.32;;;;;;;;;;5081078;28;20477;-81
2023/04/09 13:36:35;;;;;;;5.43;4.93;;;;;;;;;;5095175;28;20406;-81
2023/04/09 13:39:03;;;;;;;6.30;5.82;;;;;;;;;;5080154;28;20895;-81
2023/04/09 13:41:32;;;;;;;3.95;3.65;;;;;;;;;;5095402;28;20386;-81
2023/04/09 13:43:58;;;;;;;3.85;3.55;;;;;;;;;;5095110;28;20423;-81
2023/04/09 13:46:25;;;;;;;3.67;3.47;;;;;;;;;;5095236;28;20374;-81
2023/04/09 13:48:50;;;;;;;3.30;3.10;;;;;;;;;;5095340;28;20378;-81
2023/04/09 13:51:16;;;;;;;3.72;3.45;;;;;;;;;;5095070;28;20734;-81
2023/04/09 13:53:44;;;;;;;3.28;3.03;;;;;;;;;;5095167;28;20382;-81
2023/04/09 13:56:10;;;;;;;4.10;3.80;;;;;;;;;;5080471;28;20402;-81
2023/04/09 13:58:36;;;;;;;4.50;4.20;;;;;;;;;;5094912;28;20401;-81
2023/04/09 14:01:02;;;;;;;5.07;4.73;;;;;;;;;;5094772;28;20436;-81
2023/04/09 14:03:28;;;;;;;4.07;3.78;;;;;;;;;;5093610;28;20731;-81
2023/04/09 14:05:54;;;;;;;4.10;3.80;;;;;;;;;;5094795;28;20381;-81
2023/04/09 14:08:20;;;;;;;4.45;4.05;;;;;;;;;;5094335;28;20378;-81
2023/04/09 14:10:46;;;;;;;4.20;3.90;;;;;;;;;;5085011;28;20396;-81
2023/04/09 14:13:12;;;;;;;3.90;3.70;;;;;;;;;;5087826;28;20397;-81
2023/04/09 14:15:38;;;;;;;4.10;3.47;;;;;;;;;;5094611;28;20393;-81
2023/04/09 14:18:05;;;;;;;4.00;3.70;;;;;;;;;;5092597;28;20433;-81
2023/04/09 14:20:31;;;;;;;3.42;3.22;;;;;;;;;;5082506;28;20384;-81
2023/04/09 14:22:57;;;;;;;2.90;2.70;;;;;;;;;;5080633;28;20376;-81